sensor_id;sensor_type;location;lat;lon;timestamp;temperature;humidity
36186;DHT22;22228;53.222;7.446;2023-04-25T00:00:27;6.60;99.90
36186;DHT22;22228;53.222;7.446;2023-04-25T00:02:51;6.60;99.90
36186;DHT22;22228;53.222;7.446;2023-04-25T00:05:12;6.60;99.90
36186;DHT22;22228;53.222;7.446;2023-04-25T00:08:01;6.60;99.90
36186;DHT22;22228;53.222;7.446;2023-04-25T00:10:21;6.60;99.90
36186;DHT22;22228;53.222;7.446;2023-04-25T00:12:42;6.60;99.90
36186;DHT22;22228;53.222;7.446;2023-04-25T03:03:39;5.80;1.00
36186;DHT22;22228;53.222;7.446;2023-04-25T03:06:28;5.90;99.90
36186;DHT22;22228;53.222;7.446;2023-04-25T03:09:05;5.80;1.00
36186;DHT22;22228;53.222;7.446;2023-04-25T03:11:28;5.60;1.00
36186;DHT22;22228;53.222;7.446;2023-04-25T03:13:49;5.30;66.60
36186;DHT22;22228;53.222;7.446;2023-04-25T03:16:10;5.10;99.90
36186;DHT22;22228;53.222;7.446;2023-04-25T03:18:32;5.00;99.90
36186;DHT22;22228;53.222;7.446;2023-04-25T03:21:18;4.90;99.90
36186;DHT22;22228;53.222;7.446;2023-04-25T03:23:39;4.70;99.90
36186;DHT22;22228;53.222;7.446;2023-04-25T03:26:00;4.70;99.90
36186;DHT22;22228;53.222;7.446;2023-04-25T03:28:52;4.70;99.90
36186;DHT22;22228;53.222;7.446;2023-04-25T03:31:15;4.70;99.90
36186;DHT22;22228;53.222;7.446;2023-04-25T03:33:36;4.70;94.00
36186;DHT22;22228;53.222;7.446;2023-04-25T03:35:57;4.80;99.90
36186;DHT22;22228;53.222;7.446;2023-04-25T03:38:49;4.80;99.90
36186;DHT22;22228;53.222;7.446;2023-04-25T03:41:11;4.80;99.90
36186;DHT22;22228;53.222;7.446;2023-04-25T03:43:55;4.80;99.90
36186;DHT22;22228;53.222;7.446;2023-04-25T03:46:16;4.80;99.90
36186;DHT22;22228;53.222;7.446;2023-04-25T03:48:41;4.80;99.90
36186;DHT22;22228;53.222;7.446;2023-04-25T03:51:12;4.80;99.90
36186;DHT22;22228;53.222;7.446;2023-04-25T03:53:36;4.90;99.90
36186;DHT22;22228;53.222;7.446;2023-04-25T03:56:33;4.90;99.90
36186;DHT22;22228;53.222;7.446;2023-04-25T03:59:04;5.00;99.90
36186;DHT22;22228;53.222;7.446;2023-04-25T04:01:25;5.10;99.90
36186;DHT22;22228;53.222;7.446;2023-04-25T04:03:46;5.10;99.90
36186;DHT22;22228;53.222;7.446;2023-04-25T04:06:08;5.10;99.90
36186;DHT22;22228;53.222;7.446;2023-04-25T04:08:33;5.00;99.90
36186;DHT22;22228;53.222;7.446;2023-04-25T04:11:01;5.10;99.90
36186;DHT22;22228;53.222;7.446;2023-04-25T04:16:48;5.10;99.90
36186;DHT22;22228;53.222;7.446;2023-04-25T04:19:08;5.10;99.90
36186;DHT22;22228;53.222;7.446;2023-04-25T04:21:29;5.00;99.90
36186;DHT22;22228;53.222;7.446;2023-04-25T04:24:14;5.00;99.90
36186;DHT22;22228;53.222;7.446;2023-04-25T04:26:43;5.00;99.90
36186;DHT22;22228;53.222;7.446;2023-04-25T04:29:25;4.90;99.90
36186;DHT22;22228;53.222;7.446;2023-04-25T04:32:19;4.80;99.90
36186;DHT22;22228;53.222;7.446;2023-04-25T04:34:40;4.80;99.90
36186;DHT22;22228;53.222;7.446;2023-04-25T04:37:01;4.90;99.90
36186;DHT22;22228;53.222;7.446;2023-04-25T04:39:29;5.00;99.90
36186;DHT22;22228;53.222;7.446;2023-04-25T04:42:01;5.10;99.90
36186;DHT22;22228;53.222;7.446;2023-04-25T04:44:43;5.20;99.90
36186;DHT22;22228;53.222;7.446;2023-04-25T04:47:21;5.30;99.90
36186;DHT22;22228;53.222;7.446;2023-04-25T04:49:54;5.40;99.90
36186;DHT22;22228;53.222;7.446;2023-04-25T04:52:24;5.40;99.90
36186;DHT22;22228;53.222;7.446;2023-04-25T04:55:06;5.50;99.90
36186;DHT22;22228;53.222;7.446;2023-04-25T04:58:23;5.50;99.90
36186;DHT22;22228;53.222;7.446;2023-04-25T05:01:04;5.60;99.90
36186;DHT22;22228;53.222;7.446;2023-04-25T05:03:30;5.70;99.90
36186;DHT22;22228;53.222;7.446;2023-04-25T05:06:33;5.70;97.60
36186;DHT22;22228;53.222;7.446;2023-04-25T05:09:16;5.60;72.90
36186;DHT22;22228;53.222;7.446;2023-04-25T05:11:57;5.60;31.80
36186;DHT22;22228;53.222;7.446;2023-04-25T05:14:36;5.60;49.70
36186;DHT22;22228;53.222;7.446;2023-04-25T05:17:13;5.60;42.10
36186;DHT22;22228;53.222;7.446;2023-04-25T05:20:08;5.60;55.10
36186;DHT22;22228;53.222;7.446;2023-04-25T05:23:25;5.70;57.80
36186;DHT22;22228;53.222;7.446;2023-04-25T05:25:53;5.80;15.90
36186;DHT22;22228;53.222;7.446;2023-04-25T05:28:25;5.80;1.00
36186;DHT22;22228;53.222;7.446;2023-04-25T05:31:38;5.80;1.00
36186;DHT22;22228;53.222;7.446;2023-04-25T05:34:14;5.90;1.00
36186;DHT22;22228;53.222;7.446;2023-04-25T05:36:46;5.90;1.00
36186;DHT22;22228;53.222;7.446;2023-04-25T05:39:08;6.00;1.00
36186;DHT22;22228;53.222;7.446;2023-04-25T05:41:48;6.00;1.00
36186;DHT22;22228;53.222;7.446;2023-04-25T05:44:32;6.10;1.00
36186;DHT22;22228;53.222;7.446;2023-04-25T05:47:17;6.10;1.00
36186;DHT22;22228;53.222;7.446;2023-04-25T05:49:51;6.10;1.00
36186;DHT22;22228;53.222;7.446;2023-04-25T05:52:22;6.10;1.00
36186;DHT22;22228;53.222;7.446;2023-04-25T05:55:35;6.00;1.00
36186;DHT22;22228;53.222;7.446;2023-04-25T05:58:37;5.90;1.00
36186;DHT22;22228;53.222;7.446;2023-04-25T06:00:58;5.90;1.00
36186;DHT22;22228;53.222;7.446;2023-04-25T06:03:19;6.00;1.00
36186;DHT22;22228;53.222;7.446;2023-04-25T06:05:42;6.10;1.00
36186;DHT22;22228;53.222;7.446;2023-04-25T06:08:05;6.30;1.00
36186;DHT22;22228;53.222;7.446;2023-04-25T06:10:26;6.40;1.00
36186;DHT22;22228;53.222;7.446;2023-04-25T06:16:00;6.80;1.00
36186;DHT22;22228;53.222;7.446;2023-04-25T06:18:25;6.90;1.00
36186;DHT22;22228;53.222;7.446;2023-04-25T06:21:16;7.10;1.00
36186;DHT22;22228;53.222;7.446;2023-04-25T06:23:39;7.30;1.00
36186;DHT22;22228;53.222;7.446;2023-04-25T06:26:04;7.40;1.00
36186;DHT22;22228;53.222;7.446;2023-04-25T06:28:26;7.40;1.00
36186;DHT22;22228;53.222;7.446;2023-04-25T06:30:48;7.30;1.00
36186;DHT22;22228;53.222;7.446;2023-04-25T06:33:40;7.30;1.00
36186;DHT22;22228;53.222;7.446;2023-04-25T06:36:02;7.20;1.00
36186;DHT22;22228;53.222;7.446;2023-04-25T06:38:24;7.10;1.00
36186;DHT22;22228;53.222;7.446;2023-04-25T06:40:47;7.00;1.00
36186;DHT22;22228;53.222;7.446;2023-04-25T06:43:10;6.90;1.00
36186;DHT22;22228;53.222;7.446;2023-04-25T06:45:50;7.00;1.00
36186;DHT22;22228;53.222;7.446;2023-04-25T06:48:19;7.00;1.00
36186;DHT22;22228;53.222;7.446;2023-04-25T06:51:09;7.00;1.00
36186;DHT22;22228;53.222;7.446;2023-04-25T06:53:33;7.00;1.00
36186;DHT22;22228;53.222;7.446;2023-04-25T06:56:04;7.00;1.00
36186;DHT22;22228;53.222;7.446;2023-04-25T06:58:55;7.00;1.00
36186;DHT22;22228;53.222;7.446;2023-04-25T07:01:22;6.90;1.00
36186;DHT22;22228;53.222;7.446;2023-04-25T07:03:43;6.90;1.00
36186;DHT22;22228;53.222;7.446;2023-04-25T07:06:10;6.90;1.00
36186;DHT22;22228;53.222;7.446;2023-04-25T07:09:02;7.10;1.00
36186;DHT22;22228;53.222;7.446;2023-04-25T07:11:49;7.20;1.00
36186;DHT22;22228;53.222;7.446;2023-04-25T07:14:36;7.30;1.00
36186;DHT22;22228;53.222;7.446;2023-04-25T07:16:57;7.50;1.00
36186;DHT22;22228;53.222;7.446;2023-04-25T07:19:22;7.60;1.00
36186;DHT22;22228;53.222;7.446;2023-04-25T07:21:52;7.70;1.00
36186;DHT22;22228;53.222;7.446;2023-04-25T07:24:15;7.80;1.00
36186;DHT22;22228;53.222;7.446;2023-04-25T07:27:06;7.90;1.00
36186;DHT22;22228;53.222;7.446;2023-04-25T07:29:36;8.10;1.00
36186;DHT22;22228;53.222;7.446;2023-04-25T07:31:57;8.30;1.00
36186;DHT22;22228;53.222;7.446;2023-04-25T07:34:43;8.50;1.00
36186;DHT22;22228;53.222;7.446;2023-04-25T07:37:05;8.40;1.00
36186;DHT22;22228;53.222;7.446;2023-04-25T07:39:40;8.20;1.00
36186;DHT22;22228;53.222;7.446;2023-04-25T07:42:08;8.00;1.00
36186;DHT22;22228;53.222;7.446;2023-04-25T07:44:35;7.40;1.00
36186;DHT22;22228;53.222;7.446;2023-04-25T07:46:58;6.70;1.00
36186;DHT22;22228;53.222;7.446;2023-04-25T07:49:19;6.30;1.00
36186;DHT22;22228;53.222;7.446;2023-04-25T07:51:40;6.00;26.30
36186;DHT22;22228;53.222;7.446;2023-04-25T07:54:04;6.00;62.60
36186;DHT22;22228;53.222;7.446;2023-04-25T07:56:29;6.00;51.20
36186;DHT22;22228;53.222;7.446;2023-04-25T07:59:21;5.80;54.20
36186;DHT22;22228;53.222;7.446;2023-04-25T08:01:49;5.80;73.40
36186;DHT22;22228;53.222;7.446;2023-04-25T08:04:12;5.80;94.10
36186;DHT22;22228;53.222;7.446;2023-04-25T08:06:50;5.90;95.80
36186;DHT22;22228;53.222;7.446;2023-04-25T08:09:18;6.20;92.00
36186;DHT22;22228;53.222;7.446;2023-04-25T08:11:42;6.60;4.80
36186;DHT22;22228;53.222;7.446;2023-04-25T08:14:12;6.90;1.00
36186;DHT22;22228;53.222;7.446;2023-04-25T08:16:37;7.30;1.00
36186;DHT22;22228;53.222;7.446;2023-04-25T08:18:59;7.50;1.00
36186;DHT22;22228;53.222;7.446;2023-04-25T08:21:45;7.70;1.00
36186;DHT22;22228;53.222;7.446;2023-04-25T08:24:25;7.90;1.00
36186;DHT22;22228;53.222;7.446;2023-04-25T08:26:46;8.00;1.00
36186;DHT22;22228;53.222;7.446;2023-04-25T08:29:10;8.00;1.00
36186;DHT22;22228;53.222;7.446;2023-04-25T08:31:33;8.10;1.00
36186;DHT22;22228;53.222;7.446;2023-04-25T08:33:59;8.30;1.00
36186;DHT22;22228;53.222;7.446;2023-04-25T08:36:39;8.10;1.00
36186;DHT22;22228;53.222;7.446;2023-04-25T08:39:19;8.00;1.00
36186;DHT22;22228;53.222;7.446;2023-04-25T08:42:06;8.10;1.00
36186;DHT22;22228;53.222;7.446;2023-04-25T08:44:29;8.50;1.00
36186;DHT22;22228;53.222;7.446;2023-04-25T08:46:52;8.60;1.00
36186;DHT22;22228;53.222;7.446;2023-04-25T08:49:23;8.50;1.00
36186;DHT22;22228;53.222;7.446;2023-04-25T08:51:46;8.50;1.00
36186;DHT22;22228;53.222;7.446;2023-04-25T08:54:47;8.50;1.00
36186;DHT22;22228;53.222;7.446;2023-04-25T08:57:11;8.60;1.00
36186;DHT22;22228;53.222;7.446;2023-04-25T08:59:35;8.60;1.00
36186;DHT22;22228;53.222;7.446;2023-04-25T09:02:04;8.50;1.00
36186;DHT22;22228;53.222;7.446;2023-04-25T09:04:27;8.30;1.00
36186;DHT22;22228;53.222;7.446;2023-04-25T09:06:50;7.90;1.00
36186;DHT22;22228;53.222;7.446;2023-04-25T09:09:12;7.60;1.00
36186;DHT22;22228;53.222;7.446;2023-04-25T09:11:35;7.30;1.00
36186;DHT22;22228;53.222;7.446;2023-04-25T09:17:00;7.30;1.00
36186;DHT22;22228;53.222;7.446;2023-04-25T09:19:50;7.60;1.00
36186;DHT22;22228;53.222;7.446;2023-04-25T09:22:19;8.10;1.00
36186;DHT22;22228;53.222;7.446;2023-04-25T09:24:44;8.20;1.00
36186;DHT22;22228;53.222;7.446;2023-04-25T09:27:06;8.30;1.00
36186;DHT22;22228;53.222;7.446;2023-04-25T09:29:36;8.50;1.00
36186;DHT22;22228;53.222;7.446;2023-04-25T09:32:14;8.70;1.00
36186;DHT22;22228;53.222;7.446;2023-04-25T09:34:39;9.00;1.00
36186;DHT22;22228;53.222;7.446;2023-04-25T09:37:04;9.00;1.00
36186;DHT22;22228;53.222;7.446;2023-04-25T09:40:03;9.10;1.00
36186;DHT22;22228;53.222;7.446;2023-04-25T09:42:28;9.10;1.00
36186;DHT22;22228;53.222;7.446;2023-04-25T09:44:55;9.20;1.00
36186;DHT22;22228;53.222;7.446;2023-04-25T09:47:24;9.30;99.90
36186;DHT22;22228;53.222;7.446;2023-04-25T09:49:51;9.30;1.00
36186;DHT22;22228;53.222;7.446;2023-04-25T09:52:22;8.90;1.00
36186;DHT22;22228;53.222;7.446;2023-04-25T09:55:06;8.30;1.00
36186;DHT22;22228;53.222;7.446;2023-04-25T09:57:27;8.30;1.00
36186;DHT22;22228;53.222;7.446;2023-04-25T09:59:55;8.30;1.00
36186;DHT22;22228;53.222;7.446;2023-04-25T10:02:22;8.40;1.00
36186;DHT22;22228;53.222;7.446;2023-04-25T10:04:55;8.40;1.00
36186;DHT22;22228;53.222;7.446;2023-04-25T10:07:31;8.50;1.00
36186;DHT22;22228;53.222;7.446;2023-04-25T10:10:02;8.60;1.00
36186;DHT22;22228;53.222;7.446;2023-04-25T10:12:30;8.90;1.00
36186;DHT22;22228;53.222;7.446;2023-04-25T10:14:52;9.20;1.00
36186;DHT22;22228;53.222;7.446;2023-04-25T10:17:17;9.00;1.00
36186;DHT22;22228;53.222;7.446;2023-04-25T10:19:38;9.00;1.00
36186;DHT22;22228;53.222;7.446;2023-04-25T10:22:08;9.30;1.00
36186;DHT22;22228;53.222;7.446;2023-04-25T10:24:38;9.40;1.00
36186;DHT22;22228;53.222;7.446;2023-04-25T10:27:06;9.20;1.00
36186;DHT22;22228;53.222;7.446;2023-04-25T10:29:27;9.30;1.00
36186;DHT22;22228;53.222;7.446;2023-04-25T10:32:01;9.60;1.00
36186;DHT22;22228;53.222;7.446;2023-04-25T10:34:39;9.60;1.00
36186;DHT22;22228;53.222;7.446;2023-04-25T10:37:02;9.60;1.00
36186;DHT22;22228;53.222;7.446;2023-04-25T10:39:51;9.90;99.90
36186;DHT22;22228;53.222;7.446;2023-04-25T10:42:13;9.90;99.90
36186;DHT22;22228;53.222;7.446;2023-04-25T10:44:37;10.00;99.90
36186;DHT22;22228;53.222;7.446;2023-04-25T10:47:02;10.30;99.90
36186;DHT22;22228;53.222;7.446;2023-04-25T10:49:36;10.50;1.00
36186;DHT22;22228;53.222;7.446;2023-04-25T10:52:17;10.40;99.90
36186;DHT22;22228;53.222;7.446;2023-04-25T10:54:43;9.70;99.90
36186;DHT22;22228;53.222;7.446;2023-04-25T10:57:07;9.70;99.90
36186;DHT22;22228;53.222;7.446;2023-04-25T11:00:13;9.90;99.90
36186;DHT22;22228;53.222;7.446;2023-04-25T11:02:43;10.20;1.00
36186;DHT22;22228;53.222;7.446;2023-04-25T11:05:09;10.50;4.80
36186;DHT22;22228;53.222;7.446;2023-04-25T11:07:35;10.20;99.90
36186;DHT22;22228;53.222;7.446;2023-04-25T11:10:02;9.90;99.90
36186;DHT22;22228;53.222;7.446;2023-04-25T11:12:51;10.10;99.90
36186;DHT22;22228;53.222;7.446;2023-04-25T11:15:14;10.30;99.90
36186;DHT22;22228;53.222;7.446;2023-04-25T11:17:37;10.50;99.90
36186;DHT22;22228;53.222;7.446;2023-04-25T11:20:11;10.60;99.90
36186;DHT22;22228;53.222;7.446;2023-04-25T11:22:37;10.20;99.90
36186;DHT22;22228;53.222;7.446;2023-04-25T11:25:08;10.70;99.90
36186;DHT22;22228;53.222;7.446;2023-04-25T11:27:29;10.80;99.90
36186;DHT22;22228;53.222;7.446;2023-04-25T11:30:18;11.30;99.90
36186;DHT22;22228;53.222;7.446;2023-04-25T11:32:40;11.80;99.90
36186;DHT22;22228;53.222;7.446;2023-04-25T11:35:08;11.80;99.90
36186;DHT22;22228;53.222;7.446;2023-04-25T11:37:29;12.20;99.90
36186;DHT22;22228;53.222;7.446;2023-04-25T11:39:55;11.90;99.90
36186;DHT22;22228;53.222;7.446;2023-04-25T11:42:21;11.00;99.90
36186;DHT22;22228;53.222;7.446;2023-04-25T11:44:41;10.20;99.90
36186;DHT22;22228;53.222;7.446;2023-04-25T11:47:03;10.20;99.90
36186;DHT22;22228;53.222;7.446;2023-04-25T11:49:35;10.00;1.00
36186;DHT22;22228;53.222;7.446;2023-04-25T11:51:56;9.80;1.00
36186;DHT22;22228;53.222;7.446;2023-04-25T11:54:17;10.10;1.00
36186;DHT22;22228;53.222;7.446;2023-04-25T11:56:41;10.40;1.00
36186;DHT22;22228;53.222;7.446;2023-04-25T11:59:05;10.30;1.00
36186;DHT22;22228;53.222;7.446;2023-04-25T12:01:35;9.80;1.00
36186;DHT22;22228;53.222;7.446;2023-04-25T12:03:58;9.80;1.00
36186;DHT22;22228;53.222;7.446;2023-04-25T12:06:28;10.20;1.00
36186;DHT22;22228;53.222;7.446;2023-04-25T12:09:02;10.80;1.00
36186;DHT22;22228;53.222;7.446;2023-04-25T12:11:24;10.90;1.00
36186;DHT22;22228;53.222;7.446;2023-04-25T12:14:21;10.80;1.00
36186;DHT22;22228;53.222;7.446;2023-04-25T12:16:44;10.00;1.00
36186;DHT22;22228;53.222;7.446;2023-04-25T12:19:23;9.80;1.00
36186;DHT22;22228;53.222;7.446;2023-04-25T12:21:45;10.50;1.00
36186;DHT22;22228;53.222;7.446;2023-04-25T12:24:11;11.10;1.00
36186;DHT22;22228;53.222;7.446;2023-04-25T12:26:46;11.40;1.00
36186;DHT22;22228;53.222;7.446;2023-04-25T12:29:16;10.60;1.00
36186;DHT22;22228;53.222;7.446;2023-04-25T12:31:37;11.00;1.00
36186;DHT22;22228;53.222;7.446;2023-04-25T12:33:58;11.60;1.00
36186;DHT22;22228;53.222;7.446;2023-04-25T12:36:24;11.20;99.90
36186;DHT22;22228;53.222;7.446;2023-04-25T12:38:46;10.80;1.00
36186;DHT22;22228;53.222;7.446;2023-04-25T12:41:09;10.20;1.00
36186;DHT22;22228;53.222;7.446;2023-04-25T12:43:30;9.80;1.00
36186;DHT22;22228;53.222;7.446;2023-04-25T12:45:53;9.80;1.00
36186;DHT22;22228;53.222;7.446;2023-04-25T12:48:17;9.50;1.00
36186;DHT22;22228;53.222;7.446;2023-04-25T12:50:51;9.00;1.00
36186;DHT22;22228;53.222;7.446;2023-04-25T12:53:14;8.50;1.00
36186;DHT22;22228;53.222;7.446;2023-04-25T12:55:44;8.20;1.00
36186;DHT22;22228;53.222;7.446;2023-04-25T12:58:12;8.10;1.00
36186;DHT22;22228;53.222;7.446;2023-04-25T13:00:36;8.30;1.00
36186;DHT22;22228;53.222;7.446;2023-04-25T13:02:59;8.50;1.00
36186;DHT22;22228;53.222;7.446;2023-04-25T13:05:20;8.90;1.00
36186;DHT22;22228;53.222;7.446;2023-04-25T13:08:11;10.00;1.00
36186;DHT22;22228;53.222;7.446;2023-04-25T13:10:35;11.50;1.00
36186;DHT22;22228;53.222;7.446;2023-04-25T13:13:23;11.80;1.00
36186;DHT22;22228;53.222;7.446;2023-04-25T13:15:45;11.60;1.00
36186;DHT22;22228;53.222;7.446;2023-04-25T13:18:10;12.10;1.00
36186;DHT22;22228;53.222;7.446;2023-04-25T13:20:32;12.50;1.00
36186;DHT22;22228;53.222;7.446;2023-04-25T13:22:53;12.90;1.00
36186;DHT22;22228;53.222;7.446;2023-04-25T13:25:17;13.60;1.00
36186;DHT22;22228;53.222;7.446;2023-04-25T13:27:41;14.10;38.50
36186;DHT22;22228;53.222;7.446;2023-04-25T13:30:29;12.90;1.00
36186;DHT22;22228;53.222;7.446;2023-04-25T13:32:50;11.40;1.00
36186;DHT22;22228;53.222;7.446;2023-04-25T13:35:39;10.50;1.00
36186;DHT22;22228;53.222;7.446;2023-04-25T13:38:00;9.10;1.00
36186;DHT22;22228;53.222;7.446;2023-04-25T13:40:22;8.70;1.00
36186;DHT22;22228;53.222;7.446;2023-04-25T13:42:46;9.40;1.00
36186;DHT22;22228;53.222;7.446;2023-04-25T13:45:08;10.90;1.00
36186;DHT22;22228;53.222;7.446;2023-04-25T13:47:54;11.70;1.00
36186;DHT22;22228;53.222;7.446;2023-04-25T13:50:40;11.80;1.00
36186;DHT22;22228;53.222;7.446;2023-04-25T13:53:01;11.90;1.00
36186;DHT22;22228;53.222;7.446;2023-04-25T13:55:26;11.30;1.00
36186;DHT22;22228;53.222;7.446;2023-04-25T13:57:52;10.30;1.00
36186;DHT22;22228;53.222;7.446;2023-04-25T14:00:13;9.80;1.00
36186;DHT22;22228;53.222;7.446;2023-04-25T14:03:05;9.40;1.00
36186;DHT22;22228;53.222;7.446;2023-04-25T14:05:27;10.00;1.00
36186;DHT22;22228;53.222;7.446;2023-04-25T14:07:50;10.90;1.00
36186;DHT22;22228;53.222;7.446;2023-04-25T14:10:11;12.10;1.00
36186;DHT22;22228;53.222;7.446;2023-04-25T14:12:32;12.90;1.00
36186;DHT22;22228;53.222;7.446;2023-04-25T14:14:55;12.50;1.00
36186;DHT22;22228;53.222;7.446;2023-04-25T14:17:17;12.70;1.00
36186;DHT22;22228;53.222;7.446;2023-04-25T14:19:43;11.80;99.90
36186;DHT22;22228;53.222;7.446;2023-04-25T14:22:14;10.80;1.00
36186;DHT22;22228;53.222;7.446;2023-04-25T14:24:40;10.70;1.00
36186;DHT22;22228;53.222;7.446;2023-04-25T14:27:01;11.50;1.00
36186;DHT22;22228;53.222;7.446;2023-04-25T14:29:23;12.20;1.00
36186;DHT22;22228;53.222;7.446;2023-04-25T14:32:10;12.70;1.00
36186;DHT22;22228;53.222;7.446;2023-04-25T14:34:37;12.70;99.90
36186;DHT22;22228;53.222;7.446;2023-04-25T14:36:58;12.90;99.90
36186;DHT22;22228;53.222;7.446;2023-04-25T14:39:20;12.70;99.90
36186;DHT22;22228;53.222;7.446;2023-04-25T14:41:42;12.40;99.90
36186;DHT22;22228;53.222;7.446;2023-04-25T14:44:05;13.00;99.90
36186;DHT22;22228;53.222;7.446;2023-04-25T14:46:26;13.20;99.90
36186;DHT22;22228;53.222;7.446;2023-04-25T14:48:50;13.00;99.90
36186;DHT22;22228;53.222;7.446;2023-04-25T14:51:17;12.20;99.90
36186;DHT22;22228;53.222;7.446;2023-04-25T14:53:40;11.80;1.00
36186;DHT22;22228;53.222;7.446;2023-04-25T14:56:02;12.30;1.00
36186;DHT22;22228;53.222;7.446;2023-04-25T14:58:23;12.40;1.00
36186;DHT22;22228;53.222;7.446;2023-04-25T15:00:51;12.60;1.00
36186;DHT22;22228;53.222;7.446;2023-04-25T15:03:18;12.70;99.90
36186;DHT22;22228;53.222;7.446;2023-04-25T15:05:41;12.80;41.90
36186;DHT22;22228;53.222;7.446;2023-04-25T15:08:03;12.80;99.90
36186;DHT22;22228;53.222;7.446;2023-04-25T15:10:24;12.60;99.90
36186;DHT22;22228;53.222;7.446;2023-04-25T15:12:47;12.30;99.90
36186;DHT22;22228;53.222;7.446;2023-04-25T15:15:39;12.10;99.90
36186;DHT22;22228;53.222;7.446;2023-04-25T15:17:59;12.10;99.90
36186;DHT22;22228;53.222;7.446;2023-04-25T15:20:21;12.40;99.90
36186;DHT22;22228;53.222;7.446;2023-04-25T15:23:08;12.30;99.90
36186;DHT22;22228;53.222;7.446;2023-04-25T15:25:55;12.40;1.00
36186;DHT22;22228;53.222;7.446;2023-04-25T15:28:15;12.30;1.00
36186;DHT22;22228;53.222;7.446;2023-04-25T15:30:44;12.00;1.00
36186;DHT22;22228;53.222;7.446;2023-04-25T15:33:07;12.20;1.00
36186;DHT22;22228;53.222;7.446;2023-04-25T15:35:27;11.50;1.00
36186;DHT22;22228;53.222;7.446;2023-04-25T15:37:48;10.60;1.00
36186;DHT22;22228;53.222;7.446;2023-04-25T15:40:15;10.40;1.00
36186;DHT22;22228;53.222;7.446;2023-04-25T15:42:42;10.30;1.00
36186;DHT22;22228;53.222;7.446;2023-04-25T15:45:27;10.20;1.00
36186;DHT22;22228;53.222;7.446;2023-04-25T15:47:49;9.70;1.00
36186;DHT22;22228;53.222;7.446;2023-04-25T15:50:12;9.40;1.00
36186;DHT22;22228;53.222;7.446;2023-04-25T15:52:40;9.30;1.00
36186;DHT22;22228;53.222;7.446;2023-04-25T15:55:10;9.30;1.00
36186;DHT22;22228;53.222;7.446;2023-04-25T15:57:33;9.30;1.00
36186;DHT22;22228;53.222;7.446;2023-04-25T15:59:53;9.20;1.00
36186;DHT22;22228;53.222;7.446;2023-04-25T16:02:15;9.10;1.00
36186;DHT22;22228;53.222;7.446;2023-04-25T16:05:04;9.20;1.00
36186;DHT22;22228;53.222;7.446;2023-04-25T16:07:24;9.40;1.00
36186;DHT22;22228;53.222;7.446;2023-04-25T16:09:46;9.30;1.00
36186;DHT22;22228;53.222;7.446;2023-04-25T16:12:10;9.50;1.00
36186;DHT22;22228;53.222;7.446;2023-04-25T16:14:57;9.60;1.00
36186;DHT22;22228;53.222;7.446;2023-04-25T16:17:18;9.70;1.00
36186;DHT22;22228;53.222;7.446;2023-04-25T16:19:39;9.50;1.00
36186;DHT22;22228;53.222;7.446;2023-04-25T16:21:59;9.40;1.00
36186;DHT22;22228;53.222;7.446;2023-04-25T16:24:46;9.00;1.00
36186;DHT22;22228;53.222;7.446;2023-04-25T16:27:32;8.70;1.00
36186;DHT22;22228;53.222;7.446;2023-04-25T16:29:53;8.20;1.00
36186;DHT22;22228;53.222;7.446;2023-04-25T16:32:14;7.40;1.00
36186;DHT22;22228;53.222;7.446;2023-04-25T16:34:35;6.90;1.00
36186;DHT22;22228;53.222;7.446;2023-04-25T16:36:56;6.60;1.00
36186;DHT22;22228;53.222;7.446;2023-04-25T16:39:18;6.40;1.00
36186;DHT22;22228;53.222;7.446;2023-04-25T16:41:46;6.40;1.00
36186;DHT22;22228;53.222;7.446;2023-04-25T16:44:08;6.40;1.00
36186;DHT22;22228;53.222;7.446;2023-04-25T16:46:30;6.50;9.70
36186;DHT22;22228;53.222;7.446;2023-04-25T16:48:50;6.90;16.10
36186;DHT22;22228;53.222;7.446;2023-04-25T16:53:42;7.60;1.00
36186;DHT22;22228;53.222;7.446;2023-04-25T16:56:05;7.80;1.00
36186;DHT22;22228;53.222;7.446;2023-04-25T16:58:25;7.70;1.00
36186;DHT22;22228;53.222;7.446;2023-04-25T17:00:48;7.50;1.00
36186;DHT22;22228;53.222;7.446;2023-04-25T17:03:08;7.40;1.00
36186;DHT22;22228;53.222;7.446;2023-04-25T17:05:29;7.50;1.00
36186;DHT22;22228;53.222;7.446;2023-04-25T17:07:50;7.50;1.00
36186;DHT22;22228;53.222;7.446;2023-04-25T17:10:10;7.50;1.00
36186;DHT22;22228;53.222;7.446;2023-04-25T17:12:31;7.40;1.00
36186;DHT22;22228;53.222;7.446;2023-04-25T17:14:51;7.30;1.00
36186;DHT22;22228;53.222;7.446;2023-04-25T17:17:13;7.30;1.00
36186;DHT22;22228;53.222;7.446;2023-04-25T17:19:34;7.20;1.00
36186;DHT22;22228;53.222;7.446;2023-04-25T17:21:55;7.20;1.00
36186;DHT22;22228;53.222;7.446;2023-04-25T17:24:15;7.20;1.00
36186;DHT22;22228;53.222;7.446;2023-04-25T17:26:36;7.20;1.00
36186;DHT22;22228;53.222;7.446;2023-04-25T17:28:56;7.20;1.00
36186;DHT22;22228;53.222;7.446;2023-04-25T17:31:16;7.20;1.00
36186;DHT22;22228;53.222;7.446;2023-04-25T17:33:38;7.20;1.00
36186;DHT22;22228;53.222;7.446;2023-04-25T17:35:59;7.20;1.00
36186;DHT22;22228;53.222;7.446;2023-04-25T17:38:19;7.20;1.00
36186;DHT22;22228;53.222;7.446;2023-04-25T17:40:40;7.20;1.00
36186;DHT22;22228;53.222;7.446;2023-04-25T17:43:00;7.20;1.00
36186;DHT22;22228;53.222;7.446;2023-04-25T17:45:21;7.20;1.00
36186;DHT22;22228;53.222;7.446;2023-04-25T17:47:41;7.20;1.00
36186;DHT22;22228;53.222;7.446;2023-04-25T17:50:03;7.20;1.00
36186;DHT22;22228;53.222;7.446;2023-04-25T17:52:24;7.20;1.00
36186;DHT22;22228;53.222;7.446;2023-04-25T17:54:45;7.00;1.00
36186;DHT22;22228;53.222;7.446;2023-04-25T17:57:05;6.90;1.00
36186;DHT22;22228;53.222;7.446;2023-04-25T17:59:26;6.90;1.00
36186;DHT22;22228;53.222;7.446;2023-04-25T18:01:46;6.80;1.00
36186;DHT22;22228;53.222;7.446;2023-04-25T18:04:07;6.70;1.00
36186;DHT22;22228;53.222;7.446;2023-04-25T18:06:28;6.70;1.00
36186;DHT22;22228;53.222;7.446;2023-04-25T18:08:50;6.60;1.00
36186;DHT22;22228;53.222;7.446;2023-04-25T18:11:11;6.50;1.00
36186;DHT22;22228;53.222;7.446;2023-04-25T18:13:31;6.50;1.00
36186;DHT22;22228;53.222;7.446;2023-04-25T18:15:52;6.50;1.00
36186;DHT22;22228;53.222;7.446;2023-04-25T18:18:14;6.50;1.00
36186;DHT22;22228;53.222;7.446;2023-04-25T18:20:38;6.50;1.00
36186;DHT22;22228;53.222;7.446;2023-04-25T18:23:00;6.40;1.00
36186;DHT22;22228;53.222;7.446;2023-04-25T18:25:21;6.40;1.00
36186;DHT22;22228;53.222;7.446;2023-04-25T18:27:42;6.40;1.00
36186;DHT22;22228;53.222;7.446;2023-04-25T18:30:05;6.40;1.00
36186;DHT22;22228;53.222;7.446;2023-04-25T18:32:27;6.30;1.00
36186;DHT22;22228;53.222;7.446;2023-04-25T18:34:47;6.30;1.00
36186;DHT22;22228;53.222;7.446;2023-04-25T18:37:08;6.20;1.00
36186;DHT22;22228;53.222;7.446;2023-04-25T18:39:32;6.10;1.00
36186;DHT22;22228;53.222;7.446;2023-04-25T18:41:52;6.10;1.00
36186;DHT22;22228;53.222;7.446;2023-04-25T18:44:13;6.10;1.00
36186;DHT22;22228;53.222;7.446;2023-04-25T18:46:34;6.10;1.00
36186;DHT22;22228;53.222;7.446;2023-04-25T18:48:55;6.00;1.00
36186;DHT22;22228;53.222;7.446;2023-04-25T18:51:16;6.00;1.00
36186;DHT22;22228;53.222;7.446;2023-04-25T18:53:36;6.00;1.00
36186;DHT22;22228;53.222;7.446;2023-04-25T18:55:58;5.90;1.00
36186;DHT22;22228;53.222;7.446;2023-04-25T18:58:19;5.90;1.00
36186;DHT22;22228;53.222;7.446;2023-04-25T19:00:40;5.90;1.00